EHWO/WOE METAR and TAF weather

Enter ICAO airport designator
Station Type Date Time Source
EHWO METAR 2022/12/08 13:26 UTC NOAA

EHWO 081326Z AUTO VRB02KT 9999 SCT002 BKN003 BKN039 03/02 Q1007 AMB TEMPO SCT003 SCT005 FEW017CB


Station Type Date Time Source
EHWO Decoded METAR 2022/12/08 13:26 UTC NOAA

Woensdrecht, Netherlands (EHWO) 51-27N 004-20E 17M
Dec 08, 2022 - 08:26 AM EST / 2022.12.08 1326 UTC
Wind: Variable at 2 MPH (2 KT):0
Visibility: greater than 7 mile(s):0
Sky conditions: mostly cloudy
Weather: Cumulonimbus clouds observed
Temperature: 37 F (3 C)
Dew Point: 35 F (2 C)
Relative Humidity: 93%
Pressure (altimeter): 29.74 in. Hg (1007 hPa)
ob: EHWO 081326Z AUTO VRB02KT 9999 SCT002 BKN003 BKN039 03/02 Q1007 AMB TEMPO SCT003 SCT005 FEW017CB
cycle: 13

Station Type Date Time Source
EHWO TAF 2022/12/08 10:54 UTC NOAA

TAF COR EHWO 080946Z 0810/0822 24006KT 9999 BKN025
TEMPO 0810/0813 4000 SHRA SHRASN SCT007 BKN010 SCT015CB PROB30
TEMPO 0813/0816 FEW010 FEW018CB BKN040
TEMPO 0816/0819 3000 SHRASN SCT008 SCT015CB PROB30
TEMPO 0816/0819 2000 SHSN SCT006 SCT014CB
BECMG 0818/0820 VRB02KT 3500 BR PROB40 0819/0822 0800 FG FZFG

Example: see airport list